x

9435380 - South Beach, Or (sbeo3) Weather Station

3:54pm - Sun 19th Nov 2017 All times are PST. -8 hours from GMT.

  • Wind
    15mph, 24mph gusts
  • Sea Temp 51°f
  • Air Temp 51°f
  • Sea Pressure 1010mb
  • 9435380 - South Beach, Or
  • 9435380 - South Beach, Or

More Historic Weather Station data

Upgrade to MSW Pro to gain access to the past 30 days of data for over 8000 Wavebouys and Weather Stations around the globe.

Join

Comparision Forecast

View Surf forecast
   
Sun 11/19 3:54pm 15 24 mph 1010mb 51f 51f
3:48pm 20 30 mph 1010.1mb 51f 51f
3:42pm 15 23 mph 1010.1mb 51f 51f
3:36pm 18 26 mph 1010.3mb 51f 51f
3:30pm 16 25 mph 1010.3mb 51f 51f
3:24pm 14 33 mph 1010.4mb 51f 52f
3:18pm 20 30 mph 1010.6mb 51f 51f
3:12pm 18 23 mph 1010.8mb 51f 52f
3:06pm 18 31 mph 1011mb 51f 52f
3:00pm 16 30 mph 1011.2mb 51f 52f
2:54pm 23 33 mph 1011.1mb 51f 52f
2:48pm 17 26 mph 1011.3mb 51f 52f
2:42pm 16 33 mph 1011.7mb 51f 51f
2:36pm 15 32 mph 1011.4mb 51f 51f
2:30pm 20 29 mph 1011.7mb 52f 51f
2:24pm 17 25 mph 1011.8mb 52f 52f
2:18pm 18 31 mph 1011.8mb 52f 51f
2:12pm 22 31 mph 1011.9mb 52f 51f
2:06pm 24 39 mph 1011.9mb 52f 52f
2:00pm 21 31 mph 1012.1mb 52f 52f
1:54pm 20 34 mph 1012mb 52f 51f
1:48pm 13 24 mph 1012.1mb 52f 51f
1:42pm 15 26 mph 1012.1mb 52f 51f
1:36pm 22 31 mph 1012.3mb 52f 51f
1:30pm 18 26 mph 1012.5mb 52f 51f
1:24pm 17 26 mph 1012.7mb 52f 51f
1:18pm 17 30 mph 1012.7mb 52f 52f
1:12pm 16 25 mph 1012.9mb 52f 52f
1:06pm 14 21 mph 1012.9mb 52f 52f
1:00pm 10 18 mph 1013mb 52f 51f
12:54pm 10 14 mph 1012.9mb 52f 51f
12:48pm 9 14 mph 1013.1mb 52f 51f
12:42pm 10 16 mph 1013.1mb 52f 51f
12:36pm 11 17 mph 1013.3mb 52f 51f
12:30pm 10 15 mph 1013.5mb 52f 51f
12:24pm 8 11 mph 1013.5mb 52f 50f
12:18pm 7 11 mph 1013.6mb 52f 49f
12:12pm 8 10 mph 1013.7mb 52f 49f
12:06pm 8 9 mph 1014mb 52f 49f
12:00pm 7 11 mph 1014.2mb 52f 49f
11:54am 7 11 mph 1014.3mb 52f 49f
11:48am 9 14 mph 1014.3mb 52f 49f
11:42am 8 11 mph 1014.6mb 52f 49f
11:36am 9 11 mph 1014.7mb 52f 49f
11:30am 7 11 mph 1015mb 52f 49f
11:24am 9 13 mph 1015.1mb 52f 49f
11:18am 8 9 mph 1015.2mb 52f 48f
11:12am 8 14 mph 1015.4mb 52f 48f
11:06am 8 10 mph 1015.5mb 52f 48f
11:00am 7 9 mph 1015.7mb 52f 48f
10:54am 7 10 mph 1015.9mb 52f 47f
10:48am 7 9 mph 1016.1mb 52f 47f
10:42am 7 9 mph 1016.1mb 52f 46f
10:36am 6 11 mph 1016.2mb 52f 46f
10:30am 9 10 mph 1016.2mb 52f 44f
10:24am 7 9 mph 1016.3mb 52f 44f
10:18am 6 7 mph 1016.4mb 52f 44f
10:12am 6 7 mph 1016.5mb 52f 43f
10:06am 7 9 mph 1016.4mb 52f 43f
10:00am 9 10 mph 1016.3mb 52f 43f
9:54am 9 10 mph 1016.5mb 52f 42f
9:48am 9 10 mph 1016.6mb 52f 42f
9:42am 9 10 mph 1016.7mb 52f 42f
9:36am 9 10 mph 1016.8mb 52f 42f
9:30am 9 10 mph 1016.8mb 52f 41f
9:24am 8 10 mph 1016.9mb 52f 40f
9:18am 10 13 mph 1016.9mb 51f 40f
9:12am 10 13 mph 1016.8mb 51f 40f
9:06am 11 13 mph 1017mb 51f 40f
9:00am 9 11 mph 1017.1mb 51f 40f
8:54am 10 11 mph 1017.1mb 50f 40f
8:48am 10 13 mph 1017.1mb 50f 40f
8:42am 11 13 mph 1017mb 50f 39f
8:36am 10 11 mph 1017.1mb 49f 39f
8:30am 11 13 mph 1017mb 49f 38f
8:24am 13 14 mph 1017mb 49f 38f
8:18am 13 15 mph 1017.1mb 49f 38f
8:12am 13 14 mph 1017.1mb 49f 38f
8:06am 13 14 mph 1017.2mb 49f 38f
8:00am 13 14 mph 1017.4mb 49f 38f
7:54am 13 14 mph 1017.4mb 49f 38f
7:48am 13 14 mph 1017.4mb 49f 38f
7:42am 11 14 mph 1017.5mb 49f 38f
7:36am 13 14 mph 1017.4mb 49f 37f
7:30am 11 14 mph 1017.5mb 49f 38f
7:24am 14 15 mph 1017.5mb 49f 37f
7:18am 14 15 mph 1017.7mb 50f 37f
7:12am 13 15 mph 1017.7mb 50f 38f
7:06am 11 13 mph 1017.9mb 50f 37f
7:00am 13 14 mph 1018mb 51f 37f
Fri 11/17 10:30am 9 13 mph 1022.4mb 53f 52f
10:24am 7 10 mph 1022.3mb 53f 52f
10:18am 7 13 mph 1022.1mb 53f -
10:12am 7 9 mph 1022.1mb 53f 51f
10:06am 2 7 mph 1022mb 53f 49f
10:00am 3 7 mph 1021.9mb 53f 48f
9:54am 3 7 mph 1021.8mb 53f 47f
9:48am 6 10 mph 1021.6mb 53f -
9:42am 8 11 mph 1021.5mb 53f 46f
9:36am 9 10 mph 1021.4mb 53f 46f
9:30am 8 10 mph 1021.3mb 53f 46f
9:24am 9 11 mph 1021.3mb 53f 45f
9:18am 6 8 mph 1021.2mb 53f 46f
9:12am 7 10 mph 1021.1mb 53f 46f
9:06am 8 10 mph 1020.9mb 53f 45f
9:00am 9 10 mph 1020.8mb 53f 45f
8:54am 8 9 mph 1020.7mb 53f 45f
8:48am 8 9 mph 1020.5mb 53f -
8:42am 8 9 mph 1020.5mb 53f 44f
8:36am 8 9 mph 1020.3mb 53f 45f
8:30am 8 9 mph 1020.2mb 52f 44f
8:24am 8 9 mph 1020.1mb 52f 44f
8:18am 8 9 mph 1020.1mb 52f 45f
8:12am 5 6 mph 1020mb 52f 45f
8:06am 3 7 mph 1019.8mb 52f 45f
8:00am 7 8 mph 1019.7mb 52f 45f
7:54am 7 9 mph 1019.6mb 51f 45f
7:48am 9 9 mph 1019.5mb 51f 45f
7:42am 7 8 mph 1019.3mb 51f 45f
7:36am 3 6 mph 1019.2mb 51f 46f
7:30am 5 8 mph 1019.1mb 51f 50f
7:24am 8 9 mph 1018.9mb 51f 50f
7:18am 7 9 mph 1018.8mb 51f 50f
7:12am 6 8 mph 1018.8mb 51f 49f
7:06am 7 11 mph 1018.6mb 51f 50f
7:00am 9 11 mph 1018.4mb 51f 49f
6:54am 9 15 mph 1018.3mb 51f 49f
6:48am 9 14 mph 1018.1mb 51f 50f
6:42am 10 16 mph 1018mb 51f 49f
6:36am 13 16 mph 1017.9mb 51f 49f
6:30am 11 22 mph 1017.8mb 51f 49f
6:24am 3 7 mph 1017.6mb 51f 47f
6:18am 2 6 mph 1017.4mb 51f 46f
6:12am 3 5 mph 1017.4mb 51f 46f
6:06am 3 7 mph 1017.4mb 51f 49f
6:00am 6 9 mph 1017.3mb 51f 50f
5:54am 6 10 mph 1017.2mb 52f 50f
5:48am 6 8 mph 1017.1mb 52f 49f
5:42am 6 8 mph 1017mb 52f 49f
5:36am 5 8 mph 1017mb 52f 47f
5:30am 2 8 mph 1016.9mb 52f 45f
5:24am 8 9 mph 1016.7mb 52f 45f
5:18am 2 6 mph 1016.7mb 52f 46f
5:12am 3 7 mph 1016.6mb 52f 45f
5:06am 5 7 mph 1016.5mb 52f 45f
5:00am 6 7 mph 1016.4mb 52f 44f
4:54am 5 8 mph 1016.3mb 52f 45f
4:48am 6 6 mph 1016.2mb 52f 46f
4:42am 2 8 mph 1016mb 52f 47f
4:36am 6 8 mph 1015.9mb 52f 47f
4:30am 5 10 mph 1015.9mb 52f 47f
4:24am 10 14 mph 1015.8mb 52f 48f
4:18am 1 10 mph 1015.6mb 52f 49f
4:12am 6 8 mph 1015.4mb 52f 50f
4:06am 6 9 mph 1015.3mb 52f 50f
4:00am 6 10 mph 1015.3mb 52f 50f
3:54am 7 10 mph 1015.2mb 52f 50f
3:48am 8 15 mph 1015.2mb 52f 50f
3:42am 9 14 mph 1015.2mb 52f 50f
3:36am 9 14 mph 1015.1mb 52f 50f
3:30am 10 15 mph 1015.1mb 52f 50f
3:24am 8 11 mph 1015mb 52f 50f
3:18am 9 13 mph 1015mb 52f 50f
3:12am 2 5 mph 1015mb 52f 46f
3:06am 1 3 mph 1014.9mb 52f 45f
3:00am 3 6 mph 1014.7mb 52f 45f
2:54am 5 8 mph 1014.7mb 52f 46f
2:48am 7 11 mph 1014.6mb 52f 47f
2:42am 8 16 mph 1014.5mb 52f 47f
2:36am 3 9 mph 1014.4mb 52f 47f
2:30am 3 6 mph 1014.1mb 52f 49f
2:24am 3 9 mph 1013.8mb 52f 49f
2:18am 6 9 mph 1013.7mb 52f 49f
2:12am 7 9 mph 1013.6mb 52f 49f
2:06am 6 10 mph 1013.6mb 52f 49f
2:00am 6 10 mph 1013.6mb 52f 47f
1:54am 7 10 mph 1013.4mb 52f 48f
1:48am 5 7 mph 1013.2mb 52f 49f
1:42am 6 14 mph 1013.1mb 52f 48f
1:36am 20 26 mph 1013.3mb 52f 48f
1:30am 17 22 mph 1013.3mb 52f 49f
1:24am 8 10 mph 1013mb 52f 50f
1:18am 8 9 mph 1012.9mb 52f 50f
1:12am 7 11 mph 1012.9mb 52f 50f
1:06am 7 9 mph 1012.8mb 52f 50f
1:00am 7 9 mph 1012.7mb 52f 49f
12:54am 9 13 mph 1012.7mb 52f 49f
12:48am 8 11 mph 1012.7mb 52f 49f
12:42am 8 10 mph 1012.5mb 52f 49f
12:36am 10 18 mph 1012.4mb 52f 49f
12:30am 15 18 mph 1012.4mb 52f 49f
12:24am 16 21 mph 1012.3mb 52f 49f
12:18am 11 14 mph 1012.1mb 52f 51f
12:12am 8 14 mph 1012mb 52f 50f
12:06am 7 10 mph 1011.9mb 52f 50f
12:00am 8 10 mph 1011.8mb 52f 50f
Thu 11/16 11:54pm 7 11 mph 1011.6mb 52f 50f
11:48pm 8 14 mph 1011.5mb 52f 50f
11:42pm 7 10 mph 1011.4mb 52f 50f
11:36pm 7 15 mph 1011.3mb 52f 50f
11:30pm 9 14 mph 1011.2mb 52f 50f
11:24pm 8 14 mph 1011.1mb 52f 50f
11:18pm 10 15 mph 1011.1mb 52f 50f
11:12pm 10 20 mph 1011mb 52f 50f
11:06pm 7 14 mph 1010.9mb 52f 50f
11:00pm 6 11 mph 1010.8mb 52f 48f
10:54pm 3 6 mph 1010.8mb 52f 45f
10:48pm 5 6 mph 1010.8mb 52f -
10:42pm 3 5 mph 1010.8mb 52f 45f
10:36pm 5 7 mph 1010.8mb 52f 46f
10:30pm 2 7 mph 1010.6mb 52f 46f
10:24pm 6 10 mph 1010.6mb 52f 47f
10:18pm 5 7 mph 1010.4mb 52f 45f
10:12pm 5 6 mph 1010.3mb 52f 46f
10:06pm 2 10 mph 1010.1mb 52f 47f
10:00pm 5 9 mph 1010.1mb 52f 49f
9:54pm 6 10 mph 1010mb 52f 50f
9:48pm 5 11 mph 1009.9mb 52f 50f
9:42pm 6 10 mph 1009.9mb 52f 49f
9:36pm 3 5 mph 1009.9mb 52f 46f
9:30pm 2 5 mph 1009.9mb 52f 46f
9:24pm 3 6 mph 1009.8mb 52f 46f
9:18pm 5 7 mph 1009.7mb 52f 49f
9:12pm 3 11 mph 1009.6mb 52f 50f
9:06pm 9 11 mph 1009.5mb 52f 50f
9:00pm 8 11 mph 1009.4mb 52f 50f
8:54pm 10 14 mph 1009.3mb 52f 50f
8:48pm 6 10 mph 1009.2mb 52f 48f
8:42pm 2 7 mph 1009.2mb 52f 46f
8:36pm 6 8 mph 1009.2mb 52f 46f
8:30pm 6 7 mph 1009.1mb 52f 46f
8:24pm 3 5 mph 1009mb 52f 46f
8:18pm 3 6 mph 1008.9mb 52f 49f
8:12pm 5 9 mph 1008.8mb 52f 49f
8:06pm 7 9 mph 1008.7mb 52f 49f
8:00pm 7 10 mph 1008.6mb 51f 49f
7:54pm 6 7 mph 1008.6mb 51f 48f
7:48pm 5 10 mph 1008.6mb 51f 47f
7:42pm 7 11 mph 1008.6mb 51f 47f
7:36pm 10 24 mph 1008.7mb 51f 46f
7:30pm 15 21 mph 1008.6mb 51f 48f
7:24pm 8 14 mph 1008.4mb 51f 47f
7:18pm 8 16 mph 1008.5mb 51f 47f
7:12pm 9 13 mph 1008.4mb 51f 47f
7:06pm 8 13 mph 1008.4mb 51f 48f
7:00pm 6 9 mph 1008.4mb 51f 49f
6:54pm 8 11 mph 1008.3mb 51f 49f
6:48pm 7 10 mph 1008.2mb 51f 49f
6:42pm 5 10 mph 1008.2mb 51f 48f
6:36pm 7 14 mph 1008.1mb 51f 48f
6:30pm 9 13 mph 1008.1mb 51f 49f
6:24pm 10 14 mph 1008.1mb 51f 49f
6:18pm 8 13 mph 1008mb 51f -
6:12pm 11 17 mph 1008mb 51f 48f
6:06pm 8 18 mph 1008mb 51f 49f
6:00pm 9 16 mph 1007.9mb 51f 50f
5:54pm 6 9 mph 1007.9mb 51f 48f
5:48pm 7 14 mph 1007.8mb 51f 48f
5:42pm 7 15 mph 1007.8mb 51f 48f
5:36pm 10 17 mph 1007.7mb 51f 49f
5:30pm 7 14 mph 1007.6mb 51f 49f
5:24pm 8 13 mph 1007.5mb 51f 49f
5:18pm 6 13 mph 1007.4mb 51f 49f
5:12pm 10 14 mph 1007.4mb 51f 48f
5:06pm 10 15 mph 1007.4mb 51f 48f
5:00pm 7 14 mph 1007.4mb 51f 49f
4:54pm 6 13 mph 1007.4mb 51f 48f
4:48pm 11 17 mph 1007.4mb 51f 49f
4:42pm 13 20 mph 1007.3mb 52f 49f
4:36pm 14 22 mph 1007.3mb 52f 50f
4:30pm 15 22 mph 1007.2mb 52f 50f
4:24pm 14 20 mph 1007.2mb 52f 49f
4:18pm 10 16 mph 1007.1mb 52f 49f
4:12pm 13 17 mph 1007mb 52f 49f
4:06pm 10 14 mph 1007mb 52f 49f
4:00pm 11 17 mph 1006.9mb 52f 49f
3:54pm 10 16 mph 1006.9mb 52f 49f
3:48pm 11 15 mph 1006.8mb 52f -
3:42pm 9 15 mph 1006.8mb 52f 49f
3:36pm 8 14 mph 1006.8mb 52f 50f
3:30pm 11 16 mph 1006.7mb 52f 50f
3:24pm 11 17 mph 1006.7mb 52f 50f
3:18pm 9 16 mph 1006.7mb 52f -
3:12pm 9 14 mph 1006.6mb 52f 49f
3:06pm 11 18 mph 1006.7mb 52f 49f
3:00pm 11 17 mph 1006.7mb 52f 49f
2:54pm 9 15 mph 1006.7mb 52f 49f
2:48pm 11 18 mph 1006.7mb 52f 49f
2:42pm 8 21 mph 1006.7mb 52f 50f
2:36pm 15 22 mph 1006.8mb 52f 49f
2:30pm 10 22 mph 1006.8mb 52f 49f
2:24pm 15 24 mph 1006.7mb 52f 49f
2:18pm 18 26 mph 1006.5mb 52f 49f
2:12pm 14 20 mph 1006.5mb 52f 49f
2:06pm 11 20 mph 1006.5mb 52f 49f
2:00pm 13 18 mph 1006.5mb 52f 49f
1:54pm 15 22 mph 1006.4mb 52f 49f
1:48pm 9 13 mph 1006.4mb 52f 47f
1:42pm 6 10 mph 1006.3mb 52f 47f
1:36pm 6 9 mph 1006.4mb 52f 47f
1:30pm 7 10 mph 1006.3mb 52f 46f
1:24pm 8 9 mph 1006.3mb 52f 46f
1:18pm 6 8 mph 1006.4mb 52f -
1:12pm 8 11 mph 1006.4mb 52f 46f
1:06pm 6 11 mph 1006.4mb 52f 46f
1:00pm 9 13 mph 1006.2mb 52f 46f
12:54pm 9 11 mph 1006.2mb 52f 45f
12:48pm 10 13 mph 1006.2mb 52f 45f
12:42pm 10 14 mph 1006.2mb 52f 45f
12:36pm 9 11 mph 1006.2mb 52f 46f
12:30pm 7 8 mph 1006.2mb 52f 45f
12:24pm 6 7 mph 1006.2mb 53f 46f
12:18pm 3 5 mph 1006.1mb 53f 46f
12:12pm 2 3 mph 1006.1mb 53f 46f
12:06pm  -  3 mph 1006mb 53f 46f
12:00pm 5 20 mph 1006mb 53f 46f
11:54am 11 21 mph 1006.6mb 53f 46f
11:48am 18 28 mph 1006.6mb 53f 47f
11:42am 18 32 mph 1006.5mb 53f 47f
11:36am 9 17 mph 1006.4mb 53f 47f
11:30am 6 14 mph 1006.4mb 53f 47f
11:24am 7 11 mph 1006.2mb 53f 47f
11:18am 10 14 mph 1006.3mb 53f 47f
11:12am 11 14 mph 1006.3mb 53f 47f
11:06am 9 14 mph 1006.3mb 53f 47f
11:00am 9 14 mph 1006.3mb 53f 47f
10:54am 10 13 mph 1006.3mb 53f 47f
10:48am 9 11 mph 1006.2mb 53f 47f
10:42am 9 11 mph 1006.1mb 53f 46f
10:36am 10 14 mph 1006.1mb 53f 46f
10:30am 10 13 mph 1006mb 53f 46f
10:24am 10 13 mph 1006mb 53f 46f
10:18am 8 10 mph - - -
10:12am 7 9 mph 1006mb 53f 46f
10:06am 7 9 mph 1006mb 53f 45f
10:00am 8 10 mph 1006mb 53f 45f
9:54am 8 11 mph 1006mb 53f 45f
9:48am 10 13 mph 1005.9mb - -
9:42am 10 13 mph 1005.9mb 53f 45f
9:36am 11 14 mph 1005.9mb 53f 45f
9:30am 10 13 mph 1005.9mb 53f 44f
9:24am 10 11 mph 1005.9mb 53f 44f
9:18am 7 9 mph 1005.8mb 53f 44f
9:12am 6 8 mph 1005.9mb 53f 44f
9:06am 6 8 mph 1006mb 53f 44f
9:00am 6 8 mph 1005.9mb 53f 43f
8:54am 7 8 mph 1005.9mb 53f 43f
8:48am 7 8 mph 1005.8mb - -
8:42am 6 8 mph 1005.9mb 53f 43f
8:36am 6 9 mph 1006.2mb 53f 43f
8:30am 9 15 mph 1006.2mb 53f 44f
8:24am 11 25 mph 1006.3mb 53f 44f
8:18am 18 25 mph 1006.1mb 53f 46f
8:12am 6 8 mph 1005mb 53f 46f
8:06am 6 7 mph 1005.2mb 53f 47f
8:00am 6 7 mph 1005.1mb 53f 46f
7:54am 5 7 mph 1005mb 52f 46f
7:48am 6 7 mph - - -
7:42am 5 7 mph 1005mb 52f 46f
7:36am 6 8 mph 1005mb 52f 46f
7:30am 6 8 mph 1004.9mb 52f 46f
7:24am 6 7 mph 1005mb 52f 46f
7:18am 6 7 mph 1005mb 52f 46f
7:12am 6 7 mph 1005mb 52f 46f
7:06am 6 7 mph 1005mb 52f 46f
7:00am 6 7 mph 1005mb 52f 46f
6:54am 5 7 mph 1004.9mb 52f 46f
6:48am 7 8 mph 1004.7mb 52f 46f
6:42am 6 7 mph 1004.6mb 51f 46f
6:36am 6 7 mph 1004.6mb 51f 46f
6:30am 6 7 mph 1004.6mb 51f 46f
6:24am 7 9 mph 1004.6mb 51f 46f
6:18am 6 7 mph 1004.5mb 51f 47f
6:12am 6 9 mph 1004.6mb 51f 47f
6:06am 7 8 mph 1004.7mb 51f 46f
6:00am 5 6 mph 1004.6mb 51f 47f
5:54am 6 8 mph 1004.5mb 52f 47f
5:48am 6 7 mph 1004.5mb 52f 47f
5:42am 6 7 mph 1004.4mb 52f 47f
5:36am 5 9 mph 1004.3mb 52f 47f
5:30am 7 10 mph 1004.3mb 52f 47f
5:24am 6 11 mph 1004.3mb 52f 47f
5:18am 8 13 mph 1004.3mb 52f 48f
5:12am 9 14 mph 1004.3mb 52f 48f
5:06am 8 15 mph 1004.3mb 52f 47f
5:00am 6 10 mph 1004.4mb 52f 47f
4:54am 7 9 mph 1004.3mb 52f 46f
4:48am 6 8 mph 1004.3mb 52f 46f
4:42am 8 9 mph 1004.3mb 52f 46f
4:36am 7 9 mph 1004.3mb 52f 46f
4:30am 7 8 mph 1004.3mb 52f 46f
4:24am 6 7 mph 1004.3mb 52f 46f
4:18am 6 7 mph 1004.3mb 52f 46f
4:12am 5 7 mph 1004.3mb 52f 46f
4:06am 5 7 mph 1004.4mb 52f 46f
4:00am 5 7 mph 1004.3mb 52f 46f
3:54am 6 8 mph 1004.3mb 52f 46f
3:48am 6 7 mph 1004.3mb 52f 46f
3:42am 6 8 mph 1004.3mb 52f 46f
3:36am 7 8 mph 1004.3mb 52f 46f
3:30am 7 8 mph 1004.3mb 52f 46f
3:24am 7 8 mph 1004.3mb 52f 46f
3:18am 7 9 mph 1004.2mb 52f 46f
3:12am 7 8 mph 1004.2mb 52f 46f
3:06am 6 8 mph 1004.1mb 52f 46f
3:00am 6 10 mph 1004.1mb 52f 45f
2:54am 8 11 mph 1004.2mb 52f 45f
2:48am 8 10 mph 1004.2mb 52f 46f
2:42am 7 9 mph 1004.2mb 52f 46f
2:36am 8 11 mph 1004.2mb 53f 46f
2:30am 9 11 mph 1004.2mb 53f 46f
2:24am 8 9 mph 1004.1mb 53f 46f
2:18am 3 6 mph 1004.1mb 53f 47f
2:12am 3 6 mph 1004.1mb 53f 47f
2:06am 3 6 mph 1004mb 52f 47f
2:00am 5 6 mph 1004mb 52f 46f
1:54am 5 7 mph 1003.9mb 52f 47f
1:48am 3 5 mph 1003.9mb 52f 47f
1:42am 3 6 mph 1003.9mb 52f 46f
1:36am 3 6 mph 1003.9mb 52f 46f
1:30am 5 7 mph 1003.9mb 52f 46f
1:24am 5 6 mph 1003.8mb 52f 46f
1:18am 5 6 mph 1003.7mb 53f 46f
1:12am 5 11 mph 1003.7mb 53f 46f
1:06am 6 11 mph 1003.8mb 53f 46f
1:00am 9 16 mph 1004mb 53f 46f